Time;durP1;ratioP1;P1;durP2;ratioP2;P2;SDS_P1;SDS_P2;PMS_P1;PMS_P2;Temp;Humidity;BMP_temperature;BMP_pressure;BME280_temperature;BME280_humidity;BME280_pressure;Samples;Min_cycle;Max_cycle;Signal;HPM_P1;HPM_P2
2023/10/03 00:00:51;;;;;;;;;;;;;;;-140.72;100.00;52660.75;5068656;28;20018;-69
2023/10/03 00:03:21;;;;;;;;;;;;;;;-140.72;100.00;52634.38;5074930;28;20421;-69
2023/10/03 00:05:48;;;;;;;;;;;;;;;-140.72;100.00;52666.84;5073635;28;19966;-68
2023/10/03 00:08:13;;;;;;;;;;;;;;;-140.72;100.00;52662.78;5080656;28;19930;-68
2023/10/03 00:10:41;;;;;;;;;;;;;;;-140.72;100.00;52681.03;5075089;28;19921;-68
2023/10/03 00:13:11;;;;;;;;;;;;;;;-140.72;100.00;52672.91;5077611;28;20435;-68
2023/10/03 00:15:43;;;;;;;;;;;;;;;-140.72;100.00;52644.50;5073258;28;19921;-68
2023/10/03 00:18:09;;;;;;;;;;;;;;;-140.72;100.00;52685.09;5073779;28;19926;-68
2023/10/03 00:20:34;;;;;;;;;;;;;;;-140.72;100.00;52723.66;5074653;28;20390;-69
2023/10/03 00:22:59;;;;;;;;;;;;;;;-140.72;100.00;52711.47;5071635;28;19973;-69
2023/10/03 00:25:25;;;;;;;;;;;;;;;-140.72;100.00;52679.00;5072420;28;19943;-69
2023/10/03 00:27:51;;;;;;;;;;;;;;;-140.72;100.00;52666.84;5073572;28;20019;-69
2023/10/03 00:30:19;;;;;;;;;;;;;;;-140.72;100.00;52695.25;5071847;28;20077;-69
2023/10/03 00:32:44;;;;;;;;;;;;;;;-140.72;100.00;52672.91;5075866;28;19943;-69
2023/10/03 00:35:11;;;;;;;;;;;;;;;-140.72;100.00;52652.63;5075456;28;20368;-69
2023/10/03 00:37:37;;;;;;;;;;;;;;;-140.72;100.00;52689.16;5071926;28;20447;-69
2023/10/03 00:40:16;;;;;;;;;;;;;;;-140.72;100.00;52687.13;5072872;28;19920;-69
2023/10/03 00:42:41;;;;;;;;;;;;;;;-140.72;100.00;52670.88;5069327;28;19921;-69
2023/10/03 00:45:08;;;;;;;;;;;;;;;-140.72;100.00;52687.13;5069114;28;19947;-69
2023/10/03 00:47:33;;;;;;;;;;;;;;;-140.72;100.00;52668.84;5072156;28;19928;-69
2023/10/03 00:49:59;;;;;;;;;;;;;;;-140.72;100.00;52668.84;5071643;28;20374;-69
2023/10/03 00:52:24;;;;;;;;;;;;;;;-140.72;100.00;52670.88;5072575;28;19928;-69
2023/10/03 00:54:50;;;;;;;;;;;;;;;-140.72;100.00;52656.69;5068271;28;20004;-69
2023/10/03 00:57:16;;;;;;;;;;;;;;;-140.72;100.00;52654.66;5074280;28;20007;-69
2023/10/03 00:59:42;;;;;;;;;;;;;;;-140.72;100.00;52642.47;5072441;28;20362;-69
2023/10/03 01:02:07;;;;;;;;;;;;;;;-140.72;100.00;52646.53;5073435;28;19994;-69
2023/10/03 01:04:34;;;;;;;;;;;;;;;-140.72;100.00;52642.47;5071997;28;19920;-69
2023/10/03 01:07:00;;;;;;;;;;;;;;;-140.72;100.00;52630.31;5074181;28;19920;-69
2023/10/03 01:09:28;;;;;;;;;;;;;;;-140.72;100.00;52687.13;5073754;28;20046;-69
2023/10/03 01:11:54;;;;;;;;;;;;;;;-140.72;100.00;52646.53;5071206;28;20375;-69
2023/10/03 01:14:19;;;;;;;;;;;;;;;-140.72;100.00;52662.78;5070553;28;19924;-69
2023/10/03 01:16:45;;;;;;;;;;;;;;;-140.72;100.00;52664.81;5072348;28;19924;-69
2023/10/03 01:21:46;;;;;;;;;;;;;;;-140.72;100.00;52646.53;5071151;28;20007;-69
2023/10/03 01:24:15;;;;;;;;;;;;;;;-140.72;100.00;52640.44;5070735;28;20398;-69
2023/10/03 01:26:40;;;;;;;;;;;;;;;-140.72;100.00;52662.78;5072308;28;19920;-68
2023/10/03 01:29:05;;;;;;;;;;;;;;;-140.72;100.00;52674.94;5073470;28;19927;-69
2023/10/03 01:31:32;;;;;;;;;;;;;;;-140.72;100.00;52648.56;5076273;28;19927;-69
2023/10/03 01:33:57;;;;;;;;;;;;;;;-140.72;100.00;52648.56;5071353;28;20061;-68
2023/10/03 01:36:26;;;;;;;;;;;;;;;-140.72;100.00;52630.31;5074204;28;19970;-69
2023/10/03 01:38:52;;;;;;;;;;;;;;;-140.72;100.00;52674.94;5074472;28;20012;-69
2023/10/03 01:41:18;;;;;;;;;;;;;;;-140.72;100.00;52614.06;5069138;28;19987;-69
2023/10/03 01:43:45;;;;;;;;;;;;;;;-140.72;100.00;52632.34;5069065;28;20556;-69
2023/10/03 01:46:12;;;;;;;;;;;;;;;-140.72;100.00;52646.53;5070783;28;19956;-69
2023/10/03 01:48:37;;;;;;;;;;;;;;;-140.72;100.00;52656.69;5072593;28;19928;-70
2023/10/03 01:51:03;;;;;;;;;;;;;;;-140.72;100.00;52622.19;5072291;28;19920;-71
2023/10/03 01:53:29;;;;;;;;;;;;;;;-140.72;100.00;52638.41;5070783;28;19951;-69
2023/10/03 01:55:55;;;;;;;;;;;;;;;-140.72;100.00;52662.78;5071430;28;19928;-69
2023/10/03 01:58:23;;;;;;;;;;;;;;;-140.72;100.00;52626.25;5067373;28;19921;-69
2023/10/03 02:00:50;;;;;;;;;;;;;;;-140.72;100.00;52650.59;5071413;28;19920;-69
2023/10/03 02:03:16;;;;;;;;;;;;;;;-140.72;100.00;52648.56;5074057;28;19924;-69
2023/10/03 02:05:42;;;;;;;;;;;;;;;-140.72;100.00;52634.38;5065835;28;19921;-69
2023/10/03 02:08:10;;;;;;;;;;;;;;;-140.72;100.00;52646.53;5070874;28;19927;-69
2023/10/03 02:10:35;;;;;;;;;;;;;;;-140.72;100.00;52654.66;5071978;28;20412;-69
2023/10/03 02:13:12;;;;;;;;;;;;;;;-140.72;100.00;52622.19;5072254;28;19999;-69
2023/10/03 02:15:38;;;;;;;;;;;;;;;-140.72;100.00;52630.31;5068554;28;19920;-69
2023/10/03 02:18:05;;;;;;;;;;;;;;;-140.72;100.00;52622.19;5066467;28;20286;-69
2023/10/03 02:20:31;;;;;;;;;;;;;;;-140.72;100.00;52626.25;5071906;28;19920;-69
2023/10/03 02:22:57;;;;;;;;;;;;;;;-140.72;100.00;52634.38;5070598;28;19920;-69
2023/10/03 02:25:28;;;;;;;;;;;;;;;-140.72;100.00;52644.50;5073881;28;20015;-69
2023/10/03 02:27:54;;;;;;;;;;;;;;;-140.72;100.00;52640.44;5066620;28;19981;-69
2023/10/03 02:30:23;;;;;;;;;;;;;;;-140.72;100.00;52630.31;5072990;28;19951;-69
2023/10/03 02:32:52;;;;;;;;;;;;;;;-140.72;100.00;52601.91;5071209;28;19924;-69
2023/10/03 02:35:22;;;;;;;;;;;;;;;-140.72;100.00;52634.38;5070128;28;19921;-69
2023/10/03 02:37:48;;;;;;;;;;;;;;;-140.72;100.00;52605.94;5074759;28;20286;-69
2023/10/03 02:40:15;;;;;;;;;;;;;;;-140.72;100.00;52656.69;5068993;28;19921;-69
2023/10/03 02:42:40;;;;;;;;;;;;;;;-140.72;100.00;52630.31;5069929;28;19920;-69
2023/10/03 02:45:06;;;;;;;;;;;;;;;-140.72;100.00;52618.13;5068348;28;19921;-70
2023/10/03 02:47:31;;;;;;;;;;;;;;;-140.72;100.00;52622.19;5073242;28;20355;-69
2023/10/03 02:49:58;;;;;;;;;;;;;;;-140.72;100.00;52632.34;5068957;28;20019;-69
2023/10/03 02:52:24;;;;;;;;;;;;;;;-140.72;100.00;52612.03;5075129;28;19920;-69
2023/10/03 02:54:49;;;;;;;;;;;;;;;-140.72;100.00;52601.91;5068553;28;20289;-69
2023/10/03 02:57:15;;;;;;;;;;;;;;;-140.72;100.00;52614.06;5072877;28;19932;-69
2023/10/03 02:59:44;;;;;;;;;;;;;;;-140.72;100.00;52618.13;5065114;28;19929;-70
2023/10/03 03:02:11;;;;;;;;;;;;;;;-140.72;100.00;52585.66;5067376;28;20016;-69
2023/10/03 03:04:37;;;;;;;;;;;;;;;-140.72;100.00;52614.06;5071802;28;19928;-69
2023/10/03 03:07:04;;;;;;;;;;;;;;;-140.72;100.00;52628.28;5067745;28;19928;-69
2023/10/03 03:09:35;;;;;;;;;;;;;;;-140.72;100.00;52646.53;5065242;28;20015;-69
2023/10/03 03:12:00;;;;;;;;;;;;;;;-140.72;100.00;52605.94;5062131;28;19921;-69
2023/10/03 03:14:26;;;;;;;;;;;;;;;-140.72;100.00;52628.28;5063367;28;20375;-69
2023/10/03 03:16:52;;;;;;;;;;;;;;;-140.72;100.00;52640.44;5068843;28;19921;-69
2023/10/03 03:19:17;;;;;;;;;;;;;;;-140.72;100.00;52650.59;5070587;28;20010;-69
2023/10/03 03:21:44;;;;;;;;;;;;;;;-140.72;100.00;52648.56;5070134;28;19921;-69
2023/10/03 03:24:10;;;;;;;;;;;;;;;-140.72;100.00;52658.72;5073473;28;19924;-69
2023/10/03 03:26:41;;;;;;;;;;;;;;;-140.72;100.00;52719.59;5068465;28;20007;-70
2023/10/03 03:29:20;;;;;;;;;;;;;;;-140.72;100.00;52648.56;5065369;28;19934;-70
2023/10/03 03:31:45;;;;;;;;;;;;;;;-140.72;100.00;52646.53;5067126;28;19924;-70
2023/10/03 03:34:11;;;;;;;;;;;;;;;-140.72;100.00;52672.91;5069585;28;19974;-69
2023/10/03 03:36:40;;;;;;;;;;;;;;;-140.72;100.00;52689.16;5072677;28;19946;-70
2023/10/03 03:39:12;;;;;;;;;;;;;;;-140.72;100.00;52650.59;5069891;28;19928;-70
2023/10/03 03:41:39;;;;;;;;;;;;;;;-140.72;100.00;52644.50;5075877;28;19999;-70
2023/10/03 03:44:11;;;;;;;;;;;;;;;-140.72;100.00;52687.13;5076202;28;19924;-69
2023/10/03 03:46:37;;;;;;;;;;;;;;;-140.72;100.00;52654.66;5073362;28;19947;-70
2023/10/03 03:49:04;;;;;;;;;;;;;;;-140.72;100.00;52689.16;5075438;28;19921;-71
2023/10/03 03:51:30;;;;;;;;;;;;;;;-140.72;100.00;52654.66;5078904;28;19968;-70
2023/10/03 03:53:55;;;;;;;;;;;;;;;-140.72;100.00;52683.06;5079597;28;20330;-70
2023/10/03 03:56:21;;;;;;;;;;;;;;;-140.72;100.00;52664.81;5077070;28;19963;-70
2023/10/03 03:58:48;;;;;;;;;;;;;;;-140.72;100.00;52666.84;5074895;28;19921;-70
2023/10/03 04:01:14;;;;;;;;;;;;;;;-140.72;100.00;52679.00;5067016;28;20363;-70
2023/10/03 04:03:42;;;;;;;;;;;;;;;-140.72;100.00;52679.00;5076822;28;19921;-70
2023/10/03 04:06:07;;;;;;;;;;;;;;;-140.72;100.00;52699.31;5075556;28;19970;-70
2023/10/03 04:08:32;;;;;;;;;;;;;;;-140.72;100.00;52664.81;5071293;28;19920;-70
2023/10/03 04:10:58;;;;;;;;;;;;;;;-140.72;100.00;52666.84;5071383;28;19931;-77
2023/10/03 04:13:24;;;;;;;;;;;;;;;-140.72;100.00;52664.81;5075686;28;19927;-72
2023/10/03 04:15:50;;;;;;;;;;;;;;;-140.72;100.00;52666.84;5075347;28;19921;-71
2023/10/03 04:18:15;;;;;;;;;;;;;;;-140.72;100.00;52642.47;5075653;28;19925;-71
2023/10/03 04:20:44;;;;;;;;;;;;;;;-140.72;100.00;52687.13;5074732;28;21147;-72
2023/10/03 04:23:11;;;;;;;;;;;;;;;-140.72;100.00;52717.56;5072575;28;20315;-71
2023/10/03 04:25:39;;;;;;;;;;;;;;;-140.72;100.00;52697.28;5067235;28;20371;-71
2023/10/03 04:28:05;;;;;;;;;;;;;;;-140.72;100.00;52711.47;5077637;28;19920;-72
2023/10/03 04:30:30;;;;;;;;;;;;;;;-140.72;100.00;52689.16;5067123;28;19916;-71
2023/10/03 04:32:57;;;;;;;;;;;;;;;-140.72;100.00;52672.91;5070827;28;20326;-73
2023/10/03 04:35:23;;;;;;;;;;;;;;;-140.72;100.00;52662.78;5065943;28;20433;-77
2023/10/03 04:37:51;;;;;;;;;;;;;;;-140.72;100.00;52683.06;5068782;28;19933;-75
2023/10/03 04:40:27;;;;;;;;;;;;;;;-140.72;100.00;52668.84;5074241;28;19977;-78
2023/10/03 04:42:53;;;;;;;;;;;;;;;-140.72;100.00;52674.94;5072276;28;19963;-76
2023/10/03 04:45:19;;;;;;;;;;;;;;;-140.72;100.00;52664.81;5073995;28;19927;-76
2023/10/03 04:47:48;;;;;;;;;;;;;;;-140.72;100.00;52664.81;5072566;28;19959;-76
2023/10/03 04:50:17;;;;;;;;;;;;;;;-140.72;100.00;52668.84;5066871;28;19943;-77
2023/10/03 04:52:43;;;;;;;;;;;;;;;-140.72;100.00;52683.06;5072208;28;19924;-77
2023/10/03 04:55:08;;;;;;;;;;;;;;;-140.72;100.00;52652.63;5071808;28;19972;-77
2023/10/03 04:57:34;;;;;;;;;;;;;;;-140.72;100.00;52725.69;5073968;28;20076;-77
2023/10/03 04:59:59;;;;;;;;;;;;;;;-140.72;100.00;52666.84;5072535;28;19928;-77
2023/10/03 05:02:25;;;;;;;;;;;;;;;-140.72;100.00;52679.00;5072725;28;19932;-77
2023/10/03 05:04:50;;;;;;;;;;;;;;;-140.72;100.00;52668.84;5069536;28;19920;-77
2023/10/03 05:07:15;;;;;;;;;;;;;;;-140.72;100.00;52676.97;5076508;28;19924;-78
2023/10/03 05:09:41;;;;;;;;;;;;;;;-140.72;100.00;52719.59;5068820;28;19920;-77
2023/10/03 05:12:06;;;;;;;;;;;;;;;-140.72;100.00;52670.88;5069915;28;19928;-75
2023/10/03 05:14:34;;;;;;;;;;;;;;;-140.72;100.00;52695.25;5074328;28;19978;-79
2023/10/03 05:17:01;;;;;;;;;;;;;;;-140.72;100.00;52672.91;5076839;28;19973;-80
2023/10/03 05:19:27;;;;;;;;;;;;;;;-140.72;100.00;52685.09;5078384;28;19921;-76
2023/10/03 05:21:52;;;;;;;;;;;;;;;-140.72;100.00;52695.25;5063330;28;20388;-73
2023/10/03 05:24:17;;;;;;;;;;;;;;;-140.72;100.00;52674.94;5072402;28;20413;-72
2023/10/03 05:26:45;;;;;;;;;;;;;;;-140.72;100.00;52662.78;5070943;28;19920;-72
2023/10/03 05:29:10;;;;;;;;;;;;;;;-140.72;100.00;52681.03;5071231;28;20290;-72
2023/10/03 05:31:37;;;;;;;;;;;;;;;-140.72;100.00;52689.16;5071994;28;19924;-72
2023/10/03 05:34:03;;;;;;;;;;;;;;;-140.72;100.00;52699.31;5063097;28;19929;-72
2023/10/03 05:36:29;;;;;;;;;;;;;;;-140.72;100.00;52658.72;5067692;28;19921;-72
2023/10/03 05:39:15;;;;;;;;;;;;;;;-140.72;100.00;52709.44;5072946;28;19931;-72
2023/10/03 05:41:43;;;;;;;;;;;;;;;-140.72;100.00;52672.91;5078285;28;19932;-71
2023/10/03 05:44:12;;;;;;;;;;;;;;;-140.72;100.00;52654.66;5069537;28;19924;-72
2023/10/03 05:46:41;;;;;;;;;;;;;;;-140.72;100.00;52691.19;5076800;28;20315;-71
2023/10/03 05:49:06;;;;;;;;;;;;;;;-140.72;100.00;52685.09;5058781;28;19967;-72
2023/10/03 05:51:33;;;;;;;;;;;;;;;-140.72;100.00;52681.03;5072247;28;20026;-71
2023/10/03 05:53:59;;;;;;;;;;;;;;;-140.72;100.00;52703.34;5073554;28;19934;-71
2023/10/03 05:56:24;;;;;;;;;;;;;;;-140.72;100.00;52703.34;5072714;28;19920;-74
2023/10/03 05:58:49;;;;;;;;;;;;;;;-140.72;100.00;52693.22;5070861;28;20385;-70
2023/10/03 06:01:15;;;;;;;;;;;;;;;-140.72;100.00;52681.03;5072095;28;20019;-69
2023/10/03 06:03:41;;;;;;;;;;;;;;;-140.72;100.00;52750.03;5068124;28;20364;-70
2023/10/03 06:06:06;;;;;;;;;;;;;;;-140.72;100.00;52711.47;5070075;28;19928;-70
2023/10/03 06:08:32;;;;;;;;;;;;;;;-140.72;100.00;52699.31;5072088;28;20634;-70
2023/10/03 06:10:59;;;;;;;;;;;;;;;-140.72;100.00;52705.38;5069452;28;19916;-71
2023/10/03 06:13:27;;;;;;;;;;;;;;;-140.72;100.00;52681.03;5069964;28;19924;-70
2023/10/03 06:15:52;;;;;;;;;;;;;;;-140.72;100.00;52729.75;5068484;28;19927;-68
2023/10/03 06:18:18;;;;;;;;;;;;;;;-140.72;100.00;52685.09;5071464;28;19924;-69
2023/10/03 06:20:44;;;;;;;;;;;;;;;-140.72;100.00;52691.19;5071808;28;20046;-69
2023/10/03 06:23:09;;;;;;;;;;;;;;;-140.72;100.00;52723.66;5067575;28;19920;-68
2023/10/03 06:25:35;;;;;;;;;;;;;;;-140.72;100.00;52703.34;5071904;28;20301;-68
2023/10/03 06:28:01;;;;;;;;;;;;;;;-140.72;100.00;52668.84;5070000;28;19971;-68
2023/10/03 06:30:26;;;;;;;;;;;;;;;-140.72;100.00;52735.81;5074051;28;19964;-68
2023/10/03 06:32:52;;;;;;;;;;;;;;;-140.72;100.00;52711.47;5067605;28;20381;-68
2023/10/03 06:35:17;;;;;;;;;;;;;;;-140.72;100.00;52727.72;5073093;28;20015;-68
2023/10/03 06:37:44;;;;;;;;;;;;;;;-140.72;100.00;52733.78;5073235;28;20358;-68
2023/10/03 06:40:13;;;;;;;;;;;;;;;-140.72;100.00;52689.16;5068380;28;20289;-68
2023/10/03 06:42:42;;;;;;;;;;;;;;;-140.72;100.00;52721.63;5064743;28;19920;-71
2023/10/03 06:45:13;;;;;;;;;;;;;;;-140.72;100.00;52707.41;5069189;28;20343;-71
2023/10/03 06:47:39;;;;;;;;;;;;;;;-140.72;100.00;52691.19;5070979;28;19985;-71
2023/10/03 06:50:15;;;;;;;;;;;;;;;-140.72;100.00;52715.53;5073505;28;19928;-70
2023/10/03 06:52:40;;;;;;;;;;;;;;;-140.72;100.00;52743.94;5072222;28;20014;-70
2023/10/03 06:55:06;;;;;;;;;;;;;;;-140.72;100.00;52752.06;5072274;28;20007;-70
2023/10/03 06:57:36;;;;;;;;;;;;;;;-140.72;100.00;52707.41;5072910;28;20333;-71
2023/10/03 07:00:13;;;;;;;;;;;;;;;-140.72;100.00;52741.91;5073338;28;19920;-71
2023/10/03 07:02:39;;;;;;;;;;;;;;;-140.72;100.00;52697.28;5067941;28;20444;-71
2023/10/03 07:05:04;;;;;;;;;;;;;;;-140.72;100.00;52752.06;5067661;28;19928;-71
2023/10/03 07:07:30;;;;;;;;;;;;;;;-140.72;100.00;52745.97;5068183;28;20430;-71
2023/10/03 07:09:55;;;;;;;;;;;;;;;-140.72;100.00;52745.97;5067592;28;19982;-71
2023/10/03 07:12:22;;;;;;;;;;;;;;;-140.72;100.00;52729.75;5062997;28;19975;-71
2023/10/03 07:14:48;;;;;;;;;;;;;;;-140.72;100.00;52764.25;5071461;28;19917;-70
2023/10/03 07:17:14;;;;;;;;;;;;;;;-140.72;100.00;52743.94;5082688;28;19970;-71
2023/10/03 07:19:41;;;;;;;;;;;;;;;-140.72;100.00;52764.25;5073619;28;20015;-71
2023/10/03 07:22:06;;;;;;;;;;;;;;;-140.72;100.00;52764.25;5073692;28;19924;-71
2023/10/03 07:24:31;;;;;;;;;;;;;;;-140.72;100.00;52741.91;5074192;28;20417;-71
2023/10/03 07:26:58;;;;;;;;;;;;;;;-140.72;100.00;52750.03;5073727;28;19923;-72
2023/10/03 07:29:23;;;;;;;;;;;;;;;-140.72;100.00;52796.72;5073590;28;19921;-71
2023/10/03 07:31:48;;;;;;;;;;;;;;;-140.72;100.00;52770.31;5069432;28;19933;-71
2023/10/03 07:34:17;;;;;;;;;;;;;;;-140.72;100.00;52748.00;5086673;28;19920;-71
2023/10/03 07:36:43;;;;;;;;;;;;;;;-140.72;100.00;52768.28;5071926;28;19923;-71
2023/10/03 07:39:08;;;;;;;;;;;;;;;-140.72;100.00;52764.25;5073562;28;19916;-70
2023/10/03 07:41:34;;;;;;;;;;;;;;;-140.72;100.00;52752.06;5075234;28;20339;-71
2023/10/03 07:44:00;;;;;;;;;;;;;;;-140.72;100.00;52750.03;5083405;28;19921;-71
2023/10/03 07:46:25;;;;;;;;;;;;;;;-140.72;100.00;52743.94;5074036;28;20008;-71
2023/10/03 07:49:01;;;;;;;;;;;;;;;-140.72;100.00;52766.25;5072485;28;19923;-71
2023/10/03 07:51:29;;;;;;;;;;;;;;;-140.72;100.00;52756.13;5070502;28;20438;-70
2023/10/03 07:53:55;;;;;;;;;;;;;;;-140.72;100.00;52786.56;5073711;28;20011;-71
2023/10/03 07:56:30;;;;;;;;;;;;;;;-140.72;100.00;52782.50;5067005;28;20405;-71
2023/10/03 07:58:56;;;;;;;;;;;;;;;-140.72;100.00;52731.75;5071755;28;19925;-71
2023/10/03 08:01:24;;;;;;;;;;;;;;;-140.72;100.00;52776.41;5072520;28;19928;-70
2023/10/03 08:03:59;;;;;;;;;;;;;;;-140.72;100.00;52745.97;5081057;28;19917;-71
2023/10/03 08:06:27;;;;;;;;;;;;;;;-140.72;100.00;52750.03;5079526;28;19920;-71
2023/10/03 08:09:03;;;;;;;;;;;;;;;-140.72;100.00;52780.47;5071571;28;20275;-70
2023/10/03 08:11:29;;;;;;;;;;;;;;;-140.72;100.00;52733.78;5077462;28;19921;-70
2023/10/03 08:14:17;;;;;;;;;;;;;;;-140.72;100.00;52756.13;5063300;28;19921;-71
2023/10/03 08:16:46;;;;;;;;;;;;;;;-140.72;100.00;52764.25;5066917;28;19928;-70
2023/10/03 08:19:21;;;;;;;;;;;;;;;-140.72;100.00;52752.06;5064876;28;19948;-70
2023/10/03 08:21:50;;;;;;;;;;;;;;;-140.72;100.00;52721.63;5065138;28;20290;-70
2023/10/03 08:24:28;;;;;;;;;;;;;;;-140.72;100.00;52735.81;5087335;28;20045;-71
2023/10/03 08:27:18;;;;;;;;;;;;;;;-140.72;100.00;52752.06;5076435;28;19998;-70
2023/10/03 08:29:53;;;;;;;;;;;;;;;-140.72;100.00;52772.34;5066512;28;19927;-70
2023/10/03 08:32:56;;;;;;;;;;;;;;;-140.72;100.00;52731.75;5076364;28;19978;-70
2023/10/03 08:35:34;;;;;;;;;;;;;;;-140.72;100.00;52772.34;5074875;28;19923;-71
2023/10/03 08:38:00;;;;;;;;;;;;;;;-140.72;100.00;52754.09;5076793;28;19917;-70
2023/10/03 08:40:25;;;;;;;;;;;;;;;-140.72;100.00;52735.81;5075909;28;19923;-70
2023/10/03 08:42:52;;;;;;;;;;;;;;;-140.72;100.00;52752.06;5078347;28;19927;-71
2023/10/03 08:45:25;;;;;;;;;;;;;;;-140.72;100.00;52745.97;5070800;28;19966;-71
2023/10/03 08:47:52;;;;;;;;;;;;;;;-140.72;100.00;52772.34;5071842;28;19924;-73
2023/10/03 08:50:33;;;;;;;;;;;;;;;-140.72;100.00;52745.97;5057356;28;19994;-71
2023/10/03 08:53:12;;;;;;;;;;;;;;;-140.72;100.00;52764.25;5066554;28;19978;-70
2023/10/03 08:55:38;;;;;;;;;;;;;;;-140.72;100.00;52750.03;5076801;28;19916;-71
2023/10/03 08:58:04;;;;;;;;;;;;;;;-140.72;100.00;52756.13;5076651;28;19931;-72
2023/10/03 09:00:40;;;;;;;;;;;;;;;-140.72;100.00;52784.53;5072761;28;19921;-73
2023/10/03 09:03:09;;;;;;;;;;;;;;;-140.72;100.00;52786.56;5075134;28;19923;-71
2023/10/03 09:05:44;;;;;;;;;;;;;;;-140.72;100.00;52752.06;5072553;28;20054;-70
2023/10/03 09:08:25;;;;;;;;;;;;;;;-140.72;100.00;52788.59;5073079;28;19928;-71
2023/10/03 09:10:51;;;;;;;;;;;;;;;-140.72;100.00;52802.78;5076185;28;19923;-71
2023/10/03 09:13:24;;;;;;;;;;;;;;;-140.72;100.00;52792.66;5073484;28;20298;-71
2023/10/03 09:15:59;;;;;;;;;;;;;;;-140.72;100.00;52745.97;5065520;28;19924;-71
2023/10/03 09:18:27;;;;;;;;;;;;;;;-140.72;100.00;52770.31;5063337;28;20372;-71
2023/10/03 09:20:59;;;;;;;;;;;;;;;-140.72;100.00;52760.19;5072232;28;19920;-71
2023/10/03 09:23:24;;;;;;;;;;;;;;;-140.72;100.00;52754.09;5074428;28;20370;-70
2023/10/03 09:25:55;;;;;;;;;;;;;;;-140.72;100.00;52737.84;5075602;28;19951;-71
2023/10/03 09:28:27;;;;;;;;;;;;;;;-140.72;100.00;52764.25;5067014;28;19999;-71
2023/10/03 09:30:55;;;;;;;;;;;;;;;-140.72;100.00;52766.25;5075970;28;19920;-70
2023/10/03 09:33:21;;;;;;;;;;;;;;;-140.72;100.00;52800.75;5070744;28;19967;-71
2023/10/03 09:35:56;;;;;;;;;;;;;;;-140.72;100.00;52758.16;5070790;28;20019;-71
2023/10/03 09:38:32;;;;;;;;;;;;;;;-140.72;100.00;52788.59;5066718;28;19924;-71
2023/10/03 09:40:58;;;;;;;;;;;;;;;-140.72;100.00;52780.47;5072652;28;19943;-71
2023/10/03 09:43:27;;;;;;;;;;;;;;;-140.72;100.00;52780.47;5071270;28;19916;-71
2023/10/03 09:45:56;;;;;;;;;;;;;;;-140.72;100.00;52762.22;5062420;28;19959;-71
2023/10/03 09:48:24;;;;;;;;;;;;;;;-140.72;100.00;52804.81;5067496;28;19928;-71
2023/10/03 09:50:53;;;;;;;;;;;;;;;-140.72;100.00;52792.66;5063103;28;19920;-71
2023/10/03 09:53:18;;;;;;;;;;;;;;;-140.72;100.00;52786.56;5066836;28;20378;-71
2023/10/03 09:55:46;;;;;;;;;;;;;;;-140.72;100.00;52810.91;5074077;28;19928;-71
2023/10/03 09:58:13;;;;;;;;;;;;;;;-140.72;100.00;52790.63;5065449;28;19971;-71
2023/10/03 10:01:13;;;;;;;;;;;;;;;-140.72;100.00;52808.88;5077653;28;19921;-72
2023/10/03 10:03:33;;;;;;;;;;;;;;;-140.72;100.00;52788.59;5064066;28;19928;-70
2023/10/03 10:06:13;;;;;;;;;;;;;;;-140.72;100.00;52808.88;5069331;28;19921;-70
2023/10/03 10:08:46;;;;;;;;;;;;;;;-140.72;100.00;52784.53;5076471;28;19916;-71
2023/10/03 10:11:12;;;;;;;;;;;;;;;-140.72;100.00;52796.72;5079002;28;19938;-71
2023/10/03 10:13:41;;;;;;;;;;;;;;;-140.72;100.00;52784.53;5073008;28;20574;-69
2023/10/03 10:18:43;;;;;;;;;;;;;;;-140.72;100.00;52817.00;5069782;28;20015;-70
2023/10/03 10:21:30;;;;;;;;;;;;;;;-140.72;100.00;52766.25;5069152;28;20018;-70
2023/10/03 10:24:20;;;;;;;;;;;;;;;-140.72;100.00;52762.22;5064027;28;19936;-70
2023/10/03 10:26:49;;;;;;;;;;;;;;;-140.72;100.00;52802.78;5065208;28;19932;-71
2023/10/03 10:29:21;;;;;;;;;;;;;;;-140.72;100.00;52817.00;5083777;28;19966;-74
2023/10/03 10:32:07;;;;;;;;;;;;;;;-140.72;100.00;52748.00;5067157;28;20450;-75
2023/10/03 10:34:35;;;;;;;;;;;;;;;-140.72;100.00;52806.84;5065836;28;19928;-72
2023/10/03 10:37:27;;;;;;;;;;;;;;;-140.72;100.00;52792.66;5062223;28;19928;-72
2023/10/03 10:40:10;;;;;;;;;;;;;;;-140.72;100.00;52780.47;5070072;28;19924;-72
2023/10/03 10:42:54;;;;;;;;;;;;;;;-140.72;100.00;52764.25;5069897;28;19920;-71
2023/10/03 10:45:20;;;;;;;;;;;;;;;-140.72;100.00;52808.88;5065468;28;19982;-71
2023/10/03 10:47:46;;;;;;;;;;;;;;;-140.72;100.00;52768.28;5078877;28;20378;-71
2023/10/03 10:50:12;;;;;;;;;;;;;;;-140.72;100.00;52849.47;5070485;28;19921;-71
2023/10/03 10:52:51;;;;;;;;;;;;;;;-140.72;100.00;52788.59;5072690;28;19939;-71
2023/10/03 10:55:17;;;;;;;;;;;;;;;-140.72;100.00;52814.97;5067109;28;19942;-71
2023/10/03 10:57:43;;;;;;;;;;;;;;;-140.72;100.00;52835.25;5069981;28;19916;-71
2023/10/03 11:00:21;;;;;;;;;;;;;;;-140.72;100.00;52825.13;5065748;28;19920;-71
2023/10/03 11:02:47;;;;;;;;;;;;;;;-140.72;100.00;52821.06;5065625;28;20375;-71
2023/10/03 11:05:12;;;;;;;;;;;;;;;-140.72;100.00;52792.66;5070283;28;19921;-69
2023/10/03 11:07:39;;;;;;;;;;;;;;;-140.72;100.00;52814.97;5072001;28;19916;-69
2023/10/03 11:10:06;;;;;;;;;;;;;;;-140.72;100.00;52859.63;5068556;28;19928;-70
2023/10/03 11:12:32;;;;;;;;;;;;;;;-140.72;100.00;52827.16;5066412;28;19917;-70
2023/10/03 11:14:57;;;;;;;;;;;;;;;-140.72;100.00;52768.28;5069136;28;19931;-69
2023/10/03 11:17:23;;;;;;;;;;;;;;;-140.72;100.00;52817.00;5062630;28;19920;-69
2023/10/03 11:19:53;;;;;;;;;;;;;;;-140.72;100.00;52823.09;5067287;28;19999;-69
2023/10/03 11:22:18;;;;;;;;;;;;;;;-140.72;100.00;52833.22;5066101;28;19920;-70
2023/10/03 11:24:44;;;;;;;;;;;;;;;-140.72;100.00;52829.19;5065714;28;19924;-70
2023/10/03 11:27:21;;;;;;;;;;;;;;;-140.72;100.00;52831.19;5063177;28;19926;-70
2023/10/03 11:29:46;;;;;;;;;;;;;;;-140.72;100.00;52825.13;5065014;28;20297;-69
2023/10/03 11:32:22;;;;;;;;;;;;;;;-140.72;100.00;52837.28;5065862;28;19921;-69
2023/10/03 11:34:48;;;;;;;;;;;;;;;-140.72;100.00;52847.44;5068360;28;19923;-69
2023/10/03 11:37:34;;;;;;;;;;;;;;;-140.72;100.00;52798.72;5063870;28;20353;-69
2023/10/03 11:40:08;;;;;;;;;;;;;;;-140.72;100.00;52796.72;5067296;28;19928;-70
2023/10/03 11:42:42;;;;;;;;;;;;;;;-140.72;100.00;52683.06;5064007;28;20320;-70
2023/10/03 11:45:09;;;;;;;;;;;;;;;-140.72;100.00;52626.25;5068102;28;19934;-72
2023/10/03 11:47:35;;;;;;;;;;;;;;;-140.72;100.00;52693.22;5067229;28;19944;-70
2023/10/03 11:50:00;;;;;;;;;;;;;;;-140.72;100.00;52750.03;5068247;28;20289;-70
2023/10/03 11:52:25;;;;;;;;;;;;;;;-140.72;100.00;52711.47;5059916;28;19921;-69
2023/10/03 11:54:50;;;;;;;;;;;;;;;-140.72;100.00;52727.72;5068582;28;20746;-69
2023/10/03 11:57:16;;;;;;;;;;;;;;;-140.72;100.00;52699.31;5064828;28;19924;-70
2023/10/03 11:59:41;;;;;;;;;;;;;;;-140.72;100.00;52705.38;5071391;28;19932;-69
2023/10/03 12:02:06;;;;;;;;;;;;;;;-140.72;100.00;52719.59;5066239;28;20728;-71
2023/10/03 12:04:40;;;;;;;;;;;;;;;-140.72;100.00;52752.06;5073172;28;19928;-71
2023/10/03 12:07:06;;;;;;;;;;;;;;;-140.72;100.00;52752.06;5068765;28;19954;-71
2023/10/03 12:09:31;;;;;;;;;;;;;;;-140.72;100.00;52780.47;5069438;28;19975;-71
2023/10/03 12:11:56;;;;;;;;;;;;;;;-140.72;100.00;52788.59;5064916;28;19932;-71
2023/10/03 12:14:22;;;;;;;;;;;;;;;-140.72;100.00;52790.63;5069419;28;19920;-71
2023/10/03 12:16:51;;;;;;;;;;;;;;;-140.72;100.00;52808.88;5070762;28;21028;-71
2023/10/03 12:19:19;;;;;;;;;;;;;;;-140.72;100.00;52869.75;5069169;28;19932;-71
2023/10/03 12:21:44;;;;;;;;;;;;;;;-140.72;100.00;52837.28;5069508;28;19981;-77
2023/10/03 12:24:10;;;;;;;;;;;;;;;-140.72;100.00;52831.19;5072045;28;19920;-71
2023/10/03 12:26:35;;;;;;;;;;;;;;;-140.72;100.00;52829.19;5068280;28;19927;-70
2023/10/03 12:29:04;;;;;;;;;;;;;;;-140.72;100.00;52859.63;5067907;28;20636;-71